Startpagina
METAR-TAF:

METAR-TAF

Vliegvelden :

Chugiak, Alaska, Verenigde Staten

breedte: 61-25N, lengte: 149-31W, hoogte: 29 m

Actueel weer

Dit bericht is 17 minuten geleden gemaakt, om 05:56 UTC
Weinig wind
Temperatuur 1°C
Vochtigheid 86%
Druk 1002 hPa
Zicht: 16.1 km
Geheel bewolkt op 7000 ft
lichte regen

METAR: PABV 180556Z AUTO 00000KT 10SM -RA OVC070 01/M01 A2959 RMK AO2 SLP028 P0000 60001 T00061006 10006 20000 50003 FZRANO

Tijdstip: 21:13 (06:13 UTC)


TAF: ontbreekt

Waarnemingen en weersverwachtingen van meer dan 4000 vliegvelden (METAR en TAF).

De beschikbare stations zijn de gele en rode punten op de kaart.

Ga met uw muis naar het station om de naam te zien.

Klik dan om waarnemingen en weersverwachtingen te zien.

kaart wijzigen: klik op de groene knoppen met een zwart kruis om in te zoomen, op de groene knop met een streepje om uit te zoomen of op de groene pijlen voor aangrenzende kaarten.


METAR-TAF: